Terminal Aerodrome Forecast
Issued by NWS Jackson, KY

Home | Current Version | Previous Version | Text Only | Print | Product List | Glossary On
Versions: 1 2 3 4 5 6 7 8 9 10 11 12 13 14
869
FTUS43 KJKL 211720
TAFJKL
TAF
KJKL 211720Z 2118/2218 VRB03KT P6SM VCTS SCT040CB BKN120
      TEMPO 2119/2123 4SM TSRA BKN025CB
     FM220000 VRB02KT 6SM BR SCT030 BKN100
     FM221300 21004KT P6SM VCSH SCT035 BKN070=

USA.gov is the U.S. government's official web portal to all federal, state and local government web resources and services.